createdAt,value
2019-01-04T00:02:04.855Z,1.30
2019-01-04T00:04:53.224Z,1.30
2019-01-04T00:07:41.397Z,1.30
2019-01-04T00:10:29.831Z,1.40
2019-01-04T00:13:18.360Z,1.40
2019-01-04T00:16:06.636Z,1.40
2019-01-04T00:18:55.244Z,1.40
2019-01-04T00:21:43.764Z,1.50
2019-01-04T00:24:32.172Z,1.50
2019-01-04T00:27:20.848Z,1.60
2019-01-04T00:30:11.808Z,1.60
2019-01-04T00:33:00.406Z,1.70
2019-01-04T00:35:49.176Z,1.70
2019-01-04T00:38:37.792Z,1.70
2019-01-04T00:41:26.141Z,1.80
2019-01-04T00:44:14.809Z,1.70
2019-01-04T00:47:03.756Z,1.80
2019-01-04T00:49:52.244Z,1.80
2019-01-04T00:52:41.144Z,1.90
2019-01-04T00:55:38.908Z,1.90
2019-01-04T00:58:48.328Z,2.00
2019-01-04T01:02:00.404Z,1.90
2019-01-04T01:05:01.139Z,2.00
2019-01-04T01:08:19.612Z,2.00
2019-01-04T01:11:25.641Z,2.10
2019-01-04T01:14:23.079Z,2.10
2019-01-04T01:17:32.672Z,2.20
2019-01-04T01:20:40.920Z,2.20
2019-01-04T01:23:47.420Z,2.20
2019-01-04T01:26:57.948Z,2.30
2019-01-04T01:30:10.752Z,2.30
2019-01-04T01:33:21.177Z,2.30
2019-01-04T01:36:29.035Z,2.30
2019-01-04T01:39:54.910Z,2.40
2019-01-04T01:42:52.015Z,2.40
2019-01-04T01:45:43.649Z,2.50
2019-01-04T01:48:35.452Z,2.50
2019-01-04T01:51:26.964Z,2.50
2019-01-04T01:54:15.608Z,2.60
2019-01-04T01:57:04.136Z,2.60
2019-01-04T01:59:52.772Z,2.60
2019-01-04T02:02:40.900Z,2.60
2019-01-04T02:05:29.556Z,2.70
2019-01-04T02:08:18.552Z,2.70
2019-01-04T02:11:07.256Z,2.70
2019-01-04T02:13:55.445Z,2.70
2019-01-04T02:16:44.118Z,2.80
2019-01-04T02:19:32.572Z,2.80
2019-01-04T02:22:20.952Z,2.80
2019-01-04T02:25:09.772Z,2.90
2019-01-04T02:27:58.460Z,2.90
2019-01-04T02:30:47.144Z,2.90
2019-01-04T02:33:35.957Z,3.00
2019-01-04T02:36:24.928Z,3.00
2019-01-04T02:39:13.325Z,3.10
2019-01-04T02:42:02.312Z,3.10
2019-01-04T02:44:51.156Z,3.10
2019-01-04T02:47:39.849Z,3.10
2019-01-04T02:50:28.660Z,3.20
2019-01-04T02:53:17.587Z,3.20
2019-01-04T02:56:06.180Z,3.20
2019-01-04T02:58:55.073Z,3.30
2019-01-04T03:01:44.172Z,3.30
2019-01-04T03:04:33.046Z,3.30
2019-01-04T03:07:21.400Z,3.40
2019-01-04T03:10:10.537Z,3.40
2019-01-04T03:12:59.093Z,3.40
2019-01-04T03:15:47.932Z,3.40
2019-01-04T03:18:36.800Z,3.50
2019-01-04T03:21:25.463Z,3.50
2019-01-04T03:24:14.274Z,3.50
2019-01-04T03:27:03.436Z,3.50
2019-01-04T03:29:51.994Z,3.50
2019-01-04T03:32:41.101Z,3.50
2019-01-04T03:35:29.748Z,3.50
2019-01-04T03:38:18.277Z,3.50
2019-01-04T03:41:06.577Z,3.50
2019-01-04T03:43:54.744Z,3.60
2019-01-04T03:46:43.278Z,3.60
2019-01-04T03:49:31.718Z,3.60
2019-01-04T03:52:20.380Z,3.60
2019-01-04T03:55:09.008Z,3.60
2019-01-04T03:57:57.328Z,3.60
2019-01-04T04:00:45.895Z,3.70
2019-01-04T04:03:34.783Z,3.60
2019-01-04T04:06:23.052Z,3.60
2019-01-04T04:09:11.622Z,3.60
2019-01-04T04:12:00.263Z,3.60
2019-01-04T04:14:48.768Z,3.60
2019-01-04T04:17:36.920Z,3.60
2019-01-04T04:20:25.199Z,3.70
2019-01-04T04:23:13.801Z,3.70
2019-01-04T04:26:02.431Z,3.70
2019-01-04T04:28:50.816Z,3.70
2019-01-04T04:31:39.263Z,3.70
2019-01-04T04:34:27.700Z,3.70
2019-01-04T04:37:16.274Z,3.80
2019-01-04T04:40:05.227Z,3.80
2019-01-04T04:42:53.808Z,3.80
2019-01-04T04:45:42.296Z,3.80
2019-01-04T04:48:30.696Z,3.80
2019-01-04T04:51:19.468Z,3.80
2019-01-04T04:54:07.655Z,3.80
2019-01-04T04:56:56.227Z,3.80
2019-01-04T04:59:44.391Z,3.80
2019-01-04T05:02:32.997Z,3.80
2019-01-04T05:05:21.631Z,3.80
2019-01-04T05:08:10.089Z,3.90
2019-01-04T05:10:58.640Z,3.80
2019-01-04T05:13:46.953Z,3.80
2019-01-04T05:16:35.477Z,3.80
2019-01-04T05:19:23.603Z,3.80
2019-01-04T05:22:11.981Z,3.90
2019-01-04T05:25:00.324Z,3.80
2019-01-04T05:27:48.994Z,3.90
2019-01-04T05:30:37.412Z,3.90
2019-01-04T05:33:25.665Z,3.80
2019-01-04T05:36:14.029Z,3.80
2019-01-04T05:39:02.673Z,3.90
2019-01-04T05:41:51.040Z,3.90
2019-01-04T05:44:39.145Z,3.90
2019-01-04T05:47:27.401Z,3.90
2019-01-04T05:50:15.894Z,3.90
2019-01-04T05:53:04.240Z,4.00
2019-01-04T05:55:52.588Z,4.00
2019-01-04T05:58:41.044Z,4.00
2019-01-04T06:01:29.377Z,4.00
2019-01-04T06:04:17.701Z,4.00
2019-01-04T06:07:06.320Z,4.00
2019-01-04T06:09:54.740Z,4.00
2019-01-04T06:12:43.156Z,4.00
2019-01-04T06:15:31.422Z,4.00
2019-01-04T06:18:19.624Z,4.00
2019-01-04T06:21:08.253Z,4.00
2019-01-04T06:23:56.868Z,4.00
2019-01-04T06:26:45.264Z,4.00
2019-01-04T06:29:33.463Z,4.10
2019-01-04T06:32:21.924Z,4.10
2019-01-04T06:35:10.404Z,4.10
2019-01-04T06:37:59.956Z,4.10
2019-01-04T06:40:48.588Z,4.10
2019-01-04T06:43:37.050Z,4.10
2019-01-04T06:46:25.320Z,4.20
2019-01-04T06:49:13.833Z,4.20
2019-01-04T06:52:02.358Z,4.10
2019-01-04T06:55:19.248Z,4.20
2019-01-04T06:58:07.900Z,4.10
2019-01-04T07:00:56.320Z,4.10
2019-01-04T07:03:44.837Z,4.10
2019-01-04T07:06:33.044Z,4.10
2019-01-04T07:12:44.260Z,4.10
2019-01-04T07:15:33.152Z,4.10
2019-01-04T07:18:21.676Z,4.20
2019-01-04T07:21:10.333Z,4.20
2019-01-04T07:23:59.180Z,4.20
2019-01-04T07:26:47.912Z,4.20
2019-01-04T07:29:36.880Z,4.20
2019-01-04T07:32:25.636Z,4.20
2019-01-04T07:35:14.089Z,4.20
2019-01-04T07:38:03.165Z,4.20
2019-01-04T07:40:52.057Z,4.20
2019-01-04T07:43:40.732Z,4.20
2019-01-04T07:46:29.181Z,4.20
2019-01-04T07:49:17.601Z,4.30
2019-01-04T07:52:06.484Z,4.30
2019-01-04T07:54:55.337Z,4.30
2019-01-04T07:57:44.367Z,4.30
2019-01-04T08:00:33.075Z,4.30
2019-01-04T08:03:21.477Z,4.30
2019-01-04T08:06:10.103Z,4.30
2019-01-04T08:08:58.916Z,4.30
2019-01-04T08:11:47.773Z,4.30
2019-01-04T08:14:36.589Z,4.40
2019-01-04T08:17:25.320Z,4.40
2019-01-04T08:20:14.464Z,4.40
2019-01-04T08:23:03.144Z,4.40
2019-01-04T08:25:52.459Z,4.50
2019-01-04T08:28:41.100Z,4.50
2019-01-04T08:31:29.744Z,4.50
2019-01-04T08:34:18.477Z,4.50
2019-01-04T08:37:07.139Z,4.60
2019-01-04T08:39:56.250Z,4.60
2019-01-04T08:42:44.832Z,4.60
2019-01-04T08:45:33.728Z,4.60
2019-01-04T08:48:22.580Z,4.70
2019-01-04T08:51:11.385Z,4.70
2019-01-04T08:54:01.113Z,4.70
2019-01-04T08:56:49.916Z,4.70
2019-01-04T08:59:38.485Z,4.70
2019-01-04T09:02:27.325Z,4.70
2019-01-04T09:05:16.294Z,4.80
2019-01-04T09:08:05.220Z,4.70
2019-01-04T09:10:54.552Z,4.80
2019-01-04T09:13:42.984Z,4.80
2019-01-04T09:16:31.492Z,4.80
2019-01-04T09:19:20.075Z,4.80
2019-01-04T09:22:08.456Z,4.80
2019-01-04T09:24:56.910Z,4.80
2019-01-04T09:27:45.398Z,4.80
2019-01-04T09:30:33.546Z,4.80
2019-01-04T09:33:21.824Z,4.90
2019-01-04T09:36:10.300Z,4.90
2019-01-04T09:39:03.291Z,4.90
2019-01-04T09:41:49.572Z,4.90
2019-01-04T09:44:38.315Z,5.00
2019-01-04T09:47:27.384Z,5.00
2019-01-04T09:50:16.011Z,5.00
2019-01-04T09:53:04.832Z,5.00
2019-01-04T09:55:53.429Z,5.00
2019-01-04T09:58:42.053Z,5.00
2019-01-04T10:01:30.700Z,5.00
2019-01-04T10:04:19.560Z,5.00
2019-01-04T10:07:08.308Z,5.00
2019-01-04T10:09:57.216Z,5.00
2019-01-04T10:12:45.913Z,5.00
2019-01-04T10:15:34.434Z,5.00
2019-01-04T10:18:23.296Z,5.00
2019-01-04T10:21:12.368Z,5.00
2019-01-04T10:24:00.776Z,5.00
2019-01-04T10:26:49.387Z,5.00
2019-01-04T10:29:38.269Z,5.00
2019-01-04T10:32:27.220Z,5.00
2019-01-04T10:35:15.980Z,5.00
2019-01-04T10:38:04.836Z,5.00
2019-01-04T10:40:54.073Z,5.00
2019-01-04T10:43:42.928Z,5.00
2019-01-04T10:46:31.588Z,5.00
2019-01-04T10:49:20.432Z,5.00
2019-01-04T10:52:09.009Z,5.00
2019-01-04T10:54:57.780Z,5.00
2019-01-04T10:57:46.428Z,5.00
2019-01-04T11:00:35.096Z,5.00
2019-01-04T11:03:24.098Z,5.10
2019-01-04T11:06:13.040Z,5.10
2019-01-04T11:09:01.661Z,5.00
2019-01-04T11:11:50.337Z,5.10
2019-01-04T11:14:39.196Z,5.10
2019-01-04T11:17:28.193Z,5.10
2019-01-04T11:20:37.098Z,5.10
2019-01-04T11:23:37.948Z,5.10
2019-01-04T11:26:29.884Z,5.10
2019-01-04T11:29:33.356Z,5.10
2019-01-04T11:32:27.252Z,5.10
2019-01-04T11:35:21.255Z,5.10
2019-01-04T11:38:13.020Z,5.10
2019-01-04T11:41:19.935Z,5.00
2019-01-04T11:44:23.812Z,5.00
2019-01-04T11:47:20.064Z,5.10
2019-01-04T11:50:28.780Z,5.00
2019-01-04T11:53:00.432Z,5.00
2019-01-04T11:55:30.563Z,5.00
2019-01-04T11:58:00.850Z,5.00
2019-01-04T12:00:31.120Z,5.10
2019-01-04T12:03:01.602Z,5.00
2019-01-04T12:05:32.072Z,5.00
2019-01-04T12:08:02.364Z,5.00
2019-01-04T12:10:32.572Z,5.00
2019-01-04T12:13:02.972Z,5.10
2019-01-04T12:15:33.685Z,5.00
2019-01-04T12:18:04.140Z,5.00
2019-01-04T12:20:34.365Z,5.00
2019-01-04T12:23:11.043Z,5.00
2019-01-04T12:25:37.131Z,5.00
2019-01-04T12:28:07.260Z,5.00
2019-01-04T12:30:37.523Z,5.00
2019-01-04T12:33:08.264Z,5.00
2019-01-04T12:35:38.210Z,5.00
2019-01-04T12:38:26.893Z,5.00
2019-01-04T12:41:15.604Z,5.10
2019-01-04T12:44:04.278Z,5.10
2019-01-04T12:46:52.928Z,5.10
2019-01-04T12:49:41.484Z,5.10
2019-01-04T12:52:30.513Z,5.10
2019-01-04T12:55:19.233Z,5.10
2019-01-04T12:58:07.673Z,5.10
2019-01-04T13:00:56.806Z,5.10
2019-01-04T13:03:45.372Z,5.10
2019-01-04T13:06:34.905Z,5.10
2019-01-04T13:09:23.392Z,5.10
2019-01-04T13:11:53.352Z,5.00
2019-01-04T13:14:23.452Z,5.10
2019-01-04T13:16:53.538Z,5.10
2019-01-04T13:19:25.712Z,5.10
2019-01-04T13:21:55.216Z,5.10
2019-01-04T13:24:25.103Z,5.10
2019-01-04T13:26:55.107Z,5.10
2019-01-04T13:29:25.048Z,5.20
2019-01-04T13:31:55.196Z,5.10
2019-01-04T13:34:25.396Z,5.10
2019-01-04T13:36:55.353Z,5.10
2019-01-04T13:39:25.435Z,5.10
2019-01-04T13:41:55.312Z,5.10
2019-01-04T13:44:25.214Z,5.10
2019-01-04T13:46:55.040Z,5.10
2019-01-04T13:49:24.921Z,5.10
2019-01-04T13:51:54.821Z,5.20
2019-01-04T13:54:24.720Z,5.20
2019-01-04T13:56:54.700Z,5.20
2019-01-04T13:59:24.656Z,5.10
2019-01-04T14:01:54.738Z,5.20
2019-01-04T14:04:24.916Z,5.10
2019-01-04T14:06:55.140Z,5.10
2019-01-04T14:09:24.984Z,5.10
2019-01-04T14:11:54.871Z,5.10
2019-01-04T14:14:24.706Z,5.10
2019-01-04T14:16:55.048Z,5.10
2019-01-04T14:19:24.945Z,5.20
2019-01-04T14:21:55.164Z,5.20
2019-01-04T14:24:24.998Z,5.10
2019-01-04T14:26:55.201Z,5.20
2019-01-04T14:29:25.508Z,5.10
2019-01-04T14:31:55.648Z,5.10
2019-01-04T14:34:25.752Z,5.10
2019-01-04T14:36:55.708Z,5.10
2019-01-04T14:39:25.588Z,5.10
2019-01-04T14:41:55.584Z,5.10
2019-01-04T14:44:25.570Z,5.00
2019-01-04T14:46:55.796Z,5.00
2019-01-04T14:49:26.709Z,5.00
2019-01-04T14:51:56.951Z,5.00
2019-01-04T14:54:26.954Z,5.10
2019-01-04T14:56:56.932Z,5.00
2019-01-04T14:59:26.892Z,5.00
2019-01-04T15:01:56.734Z,5.00
2019-01-04T15:04:26.616Z,5.00
2019-01-04T15:06:56.444Z,5.00
2019-01-04T15:09:26.252Z,5.00
2019-01-04T15:11:56.651Z,5.00
2019-01-04T15:14:26.944Z,5.00
2019-01-04T15:16:57.044Z,5.00
2019-01-04T15:19:27.082Z,5.00
2019-01-04T15:21:56.895Z,5.00
2019-01-04T15:24:26.792Z,5.00
2019-01-04T15:26:56.684Z,5.00
2019-01-04T15:29:26.597Z,5.00
2019-01-04T15:31:56.547Z,5.00
2019-01-04T15:34:26.576Z,5.00
2019-01-04T15:36:56.550Z,5.00
2019-01-04T15:39:26.504Z,5.00
2019-01-04T15:41:56.400Z,5.00
2019-01-04T15:44:26.284Z,5.00
2019-01-04T15:46:56.194Z,5.00
2019-01-04T15:49:26.078Z,5.00
2019-01-04T15:51:56.045Z,4.90
2019-01-04T15:54:26.171Z,5.00
2019-01-04T15:56:56.460Z,5.00
2019-01-04T15:59:26.353Z,4.90
2019-01-04T16:01:56.448Z,5.00
2019-01-04T16:04:26.492Z,5.00
2019-01-04T16:06:56.482Z,5.00
2019-01-04T16:09:26.610Z,5.00
2019-01-04T16:11:56.682Z,5.00
2019-01-04T16:14:26.571Z,5.00
2019-01-04T16:16:56.504Z,5.00
2019-01-04T16:19:26.312Z,5.00
2019-01-04T16:21:56.276Z,5.00
2019-01-04T16:24:26.168Z,5.00
2019-01-04T16:26:56.000Z,5.10
2019-01-04T16:29:25.880Z,5.00
2019-01-04T16:31:56.024Z,5.00
2019-01-04T16:34:26.072Z,5.10
2019-01-04T16:36:56.024Z,5.10
2019-01-04T16:39:25.986Z,5.10
2019-01-04T16:41:56.272Z,5.10
2019-01-04T16:44:26.181Z,5.20
2019-01-04T16:46:56.424Z,5.20
2019-01-04T16:49:27.997Z,5.20
2019-01-04T16:51:57.887Z,5.20
2019-01-04T16:54:27.888Z,5.20
2019-01-04T16:56:59.040Z,5.30
2019-01-04T16:59:29.189Z,5.20
2019-01-04T17:01:59.185Z,5.20
2019-01-04T17:04:29.081Z,5.20
2019-01-04T17:06:59.069Z,5.20
2019-01-04T17:09:29.088Z,5.30
2019-01-04T17:11:59.011Z,5.30
2019-01-04T17:14:29.100Z,5.30
2019-01-04T17:16:59.046Z,5.30
2019-01-04T17:19:29.271Z,5.30
2019-01-04T17:21:59.908Z,5.30
2019-01-04T17:24:29.980Z,5.30
2019-01-04T17:26:59.864Z,5.30
2019-01-04T17:29:29.862Z,5.30
2019-01-04T17:31:59.755Z,5.30
2019-01-04T17:34:29.573Z,5.30
2019-01-04T17:36:59.514Z,5.30
2019-01-04T17:39:29.508Z,5.30
2019-01-04T17:41:59.350Z,5.30
2019-01-04T17:44:29.164Z,5.30
2019-01-04T17:46:59.083Z,5.30
2019-01-04T17:49:29.164Z,5.20
2019-01-04T17:51:59.429Z,5.20
2019-01-04T17:54:29.392Z,5.30
2019-01-04T17:56:59.500Z,5.30
2019-01-04T17:59:29.976Z,5.30
2019-01-04T18:01:59.956Z,5.30
2019-01-04T18:04:29.843Z,5.30
2019-01-04T18:06:59.906Z,5.20
2019-01-04T18:09:30.069Z,5.30
2019-01-04T18:11:59.976Z,5.30
2019-01-04T18:14:29.992Z,5.20
2019-01-04T18:16:59.996Z,5.20
2019-01-04T18:19:29.832Z,5.20
2019-01-04T18:21:59.782Z,5.20
2019-01-04T18:24:29.877Z,5.20
2019-01-04T18:26:59.984Z,5.20
2019-01-04T18:29:30.112Z,5.20
2019-01-04T18:32:00.211Z,5.20
2019-01-04T18:34:30.251Z,5.20
2019-01-04T18:37:00.132Z,5.20
2019-01-04T18:39:29.964Z,5.20
2019-01-04T18:41:59.860Z,5.20
2019-01-04T18:44:29.767Z,5.20
2019-01-04T18:46:59.668Z,5.20
2019-01-04T18:49:29.564Z,5.30
2019-01-04T18:51:59.652Z,5.30
2019-01-04T18:54:29.625Z,5.30
2019-01-04T18:56:59.520Z,5.30
2019-01-04T18:59:29.361Z,5.30
2019-01-04T19:01:59.248Z,5.30
2019-01-04T19:04:29.080Z,5.30
2019-01-04T19:06:59.188Z,5.30
2019-01-04T19:09:29.183Z,5.30
2019-01-04T19:11:59.206Z,5.40
2019-01-04T19:14:29.164Z,5.30
2019-01-04T19:16:59.324Z,5.30
2019-01-04T19:19:29.308Z,5.30
2019-01-04T19:21:59.496Z,5.40
2019-01-04T19:24:29.621Z,5.40
2019-01-04T19:26:59.600Z,5.40
2019-01-04T19:29:29.527Z,5.40
2019-01-04T19:32:00.612Z,5.40
2019-01-04T19:34:30.892Z,5.30
2019-01-04T19:37:01.227Z,5.30
2019-01-04T19:39:31.436Z,5.30
2019-01-04T19:42:01.648Z,5.30
2019-01-04T19:44:31.853Z,5.30
2019-01-04T19:47:02.316Z,5.30
2019-01-04T19:49:32.444Z,5.30
2019-01-04T19:52:02.589Z,5.30
2019-01-04T19:54:32.857Z,5.30
2019-01-04T19:57:03.096Z,5.30
2019-01-04T19:59:33.320Z,5.30
2019-01-04T20:02:03.452Z,5.30
2019-01-04T20:04:33.788Z,5.30
2019-01-04T20:07:42.270Z,5.30
2019-01-04T20:10:56.449Z,5.30
2019-01-04T20:14:06.405Z,5.30
2019-01-04T20:16:44.449Z,5.30
2019-01-04T20:19:32.679Z,5.30
2019-01-04T20:22:20.984Z,5.30
2019-01-04T20:24:53.220Z,5.30
2019-01-04T20:27:41.616Z,5.30
2019-01-04T20:30:16.288Z,5.30
2019-01-04T20:33:04.360Z,5.30
2019-01-04T20:35:52.732Z,5.30
2019-01-04T20:38:41.088Z,5.30
2019-01-04T20:41:28.272Z,5.30
2019-01-04T20:44:06.145Z,5.30
2019-01-04T20:46:54.385Z,5.40
2019-01-04T20:49:44.571Z,5.30
2019-01-04T20:52:25.792Z,5.30
2019-01-04T20:55:09.404Z,5.30
2019-01-04T20:57:41.312Z,5.30
2019-01-04T21:00:29.264Z,5.30
2019-01-04T21:03:01.104Z,5.40
2019-01-04T21:05:51.252Z,5.30
2019-01-04T21:08:39.852Z,5.30
2019-01-04T21:11:14.426Z,5.30
2019-01-04T21:13:46.682Z,5.30
2019-01-04T21:16:18.814Z,5.30
2019-01-04T21:18:53.860Z,5.30
2019-01-04T21:21:25.917Z,5.30
2019-01-04T21:24:16.413Z,5.30
2019-01-04T21:27:00.548Z,5.20
2019-01-04T21:29:48.797Z,5.30
2019-01-04T21:32:36.915Z,5.20
2019-01-04T21:35:09.212Z,5.20
2019-01-04T21:37:40.985Z,5.20
2019-01-04T21:40:22.117Z,5.20
2019-01-04T21:42:53.956Z,5.20
2019-01-04T21:45:34.836Z,5.20
2019-01-04T21:48:12.459Z,5.20
2019-01-04T21:50:53.232Z,5.20
2019-01-04T21:53:37.044Z,5.20
2019-01-04T21:56:15.220Z,5.20
2019-01-04T21:58:47.084Z,5.20
2019-01-04T22:01:28.048Z,5.20
2019-01-04T22:04:02.706Z,5.20
2019-01-04T22:06:50.992Z,5.20
2019-01-04T22:09:22.756Z,5.20
2019-01-04T22:12:00.852Z,5.20
2019-01-04T22:14:35.284Z,5.20
2019-01-04T22:17:10.012Z,5.20
2019-01-04T22:19:41.776Z,5.20
2019-01-04T22:22:25.332Z,5.20
2019-01-04T22:25:12.396Z,5.20
2019-01-04T22:27:46.881Z,5.20
2019-01-04T22:30:21.332Z,5.10
2019-01-04T22:33:05.312Z,5.10
2019-01-04T22:35:37.171Z,5.10
2019-01-04T22:38:09.080Z,5.10
2019-01-04T22:40:43.825Z,5.10
2019-01-04T22:43:27.716Z,5.10
2019-01-04T22:46:11.228Z,5.10
2019-01-04T22:48:42.994Z,5.00
2019-01-04T22:51:26.964Z,5.10
2019-01-04T22:54:01.512Z,5.00
2019-01-04T22:56:33.392Z,5.00
2019-01-04T22:59:15.768Z,5.00
2019-01-04T23:01:56.445Z,5.00
2019-01-04T23:04:28.288Z,5.10
2019-01-04T23:07:16.744Z,5.00
2019-01-04T23:10:05.232Z,5.00
2019-01-04T23:12:52.115Z,5.10
2019-01-04T23:15:40.153Z,5.00
2019-01-04T23:18:12.202Z,5.10
2019-01-04T23:20:47.348Z,5.00
2019-01-04T23:23:28.353Z,5.00
2019-01-04T23:26:00.260Z,5.00
2019-01-04T23:28:47.260Z,5.10
2019-01-04T23:31:19.264Z,5.00
2019-01-04T23:34:07.404Z,5.00
2019-01-04T23:36:39.306Z,5.10
2019-01-04T23:39:17.119Z,5.10
2019-01-04T23:42:05.444Z,5.10
2019-01-04T23:44:52.561Z,5.10
2019-01-04T23:47:30.504Z,5.10
2019-01-04T23:50:14.520Z,5.10
2019-01-04T23:52:58.662Z,5.10
2019-01-04T23:55:30.496Z,5.10
2019-01-04T23:58:18.791Z,5.10
